Salida, CO

11:29 AM MDT on August 18, 2017 (GMT -0600)
Salida

Weather History for KANK - April, 2014

Change the Weather History Date:

Friday, April 4, 2014

  Actual Average (KGUC) Record (KGUC)
Temperature  
Mean Temperature 30 °F -  
Max Temperature 46 °F 47 °F 62 °F (2002)
Min Temperature 15 °F 21 °F 12 °F (2015)
Degree Days  
Heating Degree Days 34    
Moisture  
Dew Point 18 °F    
Average Humidity 61    
Maximum Humidity 88    
Minimum Humidity 30    
Precipitation  
Precipitation 0.00 in - - ()
Sea Level Pressure  
Sea Level Pressure 30.13 in    
Wind  
Wind Speed 4 mph (SW)    
Max Wind Speed 15 mph    
Max Gust Speed 21 mph    
Visibility 10 miles    
Events      
Averages and records for this station are not official NWS values.
T = Trace of Precipitation, MM = Missing Value Source: NWS Daily Summary

Daily Weather History Graph

Daily Weather History Graph

Search for Another Location

Airport or City:

Trip Planner

Search our weather history database for the weather conditions in past years. The results will help you decide how hot, cold, wet, or windy it might be!

Date:

Astronomy

Apr. 04, 2014 Rise Set
Actual Time 6:44 AM MDT 7:30 PM MDT
Civil Twilight 6:17 AM MDT 7:57 PM MDT
Nautical Twilight 5:45 AM MDT 8:29 PM MDT
Astronomical Twilight 5:13 AM MDT 9:02 PM MDT
Moon 10:06 AM MDT (4/4) No Moon Set
Length of Visible Light 13h 39m
Length of Day
12h 46m
Waxing Crescent, 26% of the Moon is Illuminated
Apr 4
Waxing Crescent
Apr 7
First Quarter
Apr 15
Full
Apr 22
Last Quarter
Apr 29
New

Hourly Weather History & Observations

Time (MDT) Temp. Windchill Dew Point Humidity Pressure Visibility Wind Dir Wind Speed Gust Speed Precip Events Conditions
12:15 AM 21.2 °F 13.6 °F 15.3 °F 78% 30.19 in 10.0 mi WSW 5.8 mph - N/A   Clear
12:35 AM 20.8 °F 12.1 °F 14.7 °F 77% 30.20 in 10.0 mi WSW 6.9 mph - N/A   Clear
12:55 AM 20.7 °F 15.8 °F 14.7 °F 78% 30.20 in 10.0 mi WNW 3.5 mph - N/A   Clear
1:15 AM 21.2 °F - 15.1 °F 77% 30.19 in 10.0 mi Calm Calm - N/A   Clear
1:35 AM 19.9 °F - 15.8 °F 84% 30.19 in 10.0 mi Calm Calm - N/A   Clear
1:55 AM 19.4 °F - 14.9 °F 83% 30.19 in 10.0 mi Calm Calm - N/A   Clear
2:15 AM 19.9 °F - 16.2 °F 85% 30.19 in 10.0 mi Calm Calm - N/A   Clear
2:35 AM 19.2 °F - 14.9 °F 83% 30.19 in 10.0 mi Calm Calm - N/A   Clear
2:55 AM 18.7 °F - 15.6 °F 88% 30.19 in 10.0 mi Calm Calm - N/A   Clear
3:15 AM 18.0 °F 9.8 °F 14.0 °F 84% 30.19 in 10.0 mi West 5.8 mph - N/A   Clear
3:35 AM 17.2 °F - 12.6 °F 82% 30.18 in 10.0 mi Calm Calm - N/A   Clear
3:55 AM 17.8 °F - 14.0 °F 85% 30.18 in 10.0 mi Calm Calm - N/A   Clear
4:15 AM 15.8 °F - 11.7 °F 84% 30.18 in 10.0 mi Calm Calm - N/A   Clear
4:35 AM 16.2 °F - 12.7 °F 86% 30.17 in 10.0 mi Calm Calm - N/A   Clear
4:55 AM 16.7 °F - 12.7 °F 84% 30.18 in 10.0 mi Calm Calm - N/A   Clear
5:15 AM 16.9 °F - 12.2 °F 82% 30.19 in 10.0 mi Calm Calm - N/A   Clear
5:35 AM 18.0 °F 7.7 °F 13.5 °F 83% 30.19 in 10.0 mi NNW 8.1 mph - N/A   Clear
5:55 AM 18.5 °F 11.7 °F 13.5 °F 81% 30.19 in 10.0 mi NW 4.6 mph - N/A   Clear
6:15 AM 18.0 °F - 12.2 °F 78% 30.19 in 10.0 mi Calm Calm - N/A   Clear
6:35 AM 16.2 °F 9.0 °F 11.1 °F 81% 30.19 in 10.0 mi WNW 4.6 mph - N/A   Clear
6:55 AM 17.8 °F 8.5 °F 12.4 °F 79% 30.19 in 10.0 mi NNW 6.9 mph - N/A   Clear
7:15 AM 18.0 °F 9.8 °F 12.2 °F 78% 30.19 in 10.0 mi WNW 5.8 mph - N/A   Clear
7:35 AM 19.0 °F 13.9 °F 12.9 °F 77% 30.20 in 10.0 mi NW 3.5 mph - N/A   Clear
7:55 AM 19.4 °F - 12.6 °F 75% 30.20 in 10.0 mi Calm Calm - N/A   Clear
8:15 AM 21.2 °F - 13.5 °F 72% 30.20 in 10.0 mi Calm Calm - N/A   Clear
8:35 AM 22.1 °F - 14.5 °F 73% 30.20 in 10.0 mi Calm Calm - N/A   Clear
8:55 AM 22.8 °F 16.7 °F 15.4 °F 73% 30.19 in 10.0 mi NNW 4.6 mph - N/A   Clear
9:15 AM 25.2 °F 19.5 °F 16.2 °F 69% 30.19 in 10.0 mi WNW 4.6 mph - N/A   Clear
9:35 AM 27.1 °F - 15.8 °F 62% 30.19 in 10.0 mi Calm Calm - N/A   Clear
9:55 AM 28.4 °F - 16.5 °F 61% 30.19 in 10.0 mi Calm Calm - N/A   Clear
10:15 AM 30.4 °F 26.9 °F 18.0 °F 60% 30.19 in 10.0 mi WSW 3.5 mph - N/A   Clear
10:35 AM 32.0 °F - 19.0 °F 59% 30.19 in 10.0 mi Calm Calm - N/A   Clear
10:55 AM 32.7 °F - 19.8 °F 59% 30.17 in 10.0 mi Calm Calm - N/A   Clear
11:15 AM 33.8 °F - 20.7 °F 59% 30.17 in 10.0 mi Calm Calm - N/A   Clear
11:35 AM 34.2 °F - 19.2 °F 54% 30.16 in 10.0 mi Calm Calm - N/A   Clear
11:55 AM 35.8 °F - 21.7 °F 57% 30.15 in 10.0 mi Calm Calm - N/A   Clear
12:15 PM 38.5 °F 35.0 °F 22.8 °F 53% 30.14 in 10.0 mi SSE 4.6 mph - N/A   Clear
12:55 PM 41.0 °F 33.1 °F 23.4 °F 50% 30.12 in 10.0 mi South 15.0 mph 20.7 mph N/A   Clear
1:15 PM 42.8 °F 38.0 °F 21.9 °F 44% 30.11 in 10.0 mi South 8.1 mph 16.1 mph N/A   Clear
1:35 PM 43.2 °F 37.4 °F 19.6 °F 39% 30.10 in 10.0 mi SSE 10.4 mph 17.3 mph N/A   Clear
1:55 PM 44.8 °F 39.9 °F 23.4 °F 43% 30.09 in 10.0 mi South 9.2 mph - N/A   Clear
2:15 PM 45.1 °F 40.8 °F 20.1 °F 37% 30.08 in 10.0 mi SSW 8.1 mph 16.1 mph N/A   Clear
2:35 PM 45.3 °F 40.1 °F 20.3 °F 37% 30.07 in 10.0 mi South 10.4 mph 16.1 mph N/A   Clear
2:55 PM 45.7 °F 40.6 °F 20.1 °F 36% 30.07 in 10.0 mi South 10.4 mph 16.1 mph N/A   Clear
3:15 PM 44.8 °F 40.4 °F 18.7 °F 35% 30.07 in 10.0 mi South 8.1 mph - N/A   Mostly Cloudy
3:35 PM 46.2 °F 42.7 °F 17.1 °F 31% 30.06 in 10.0 mi SE 6.9 mph - N/A   Mostly Cloudy
3:55 PM 46.0 °F 41.4 °F 16.2 °F 30% 30.05 in 10.0 mi SSW 9.2 mph - N/A   Mostly Cloudy
4:15 PM 45.0 °F 40.1 °F 17.6 °F 33% 30.05 in 10.0 mi SSW 9.2 mph - N/A   Mostly Cloudy
4:35 PM 44.2 °F 38.8 °F 17.8 °F 35% 30.05 in 10.0 mi South 10.4 mph - N/A   Overcast
4:55 PM 44.8 °F 41.0 °F 16.0 °F 31% 30.05 in 10.0 mi WSW 6.9 mph - N/A   Overcast
5:15 PM 44.6 °F 41.4 °F 15.6 °F 31% 30.05 in 10.0 mi SSW 5.8 mph - N/A   Overcast
5:35 PM 44.1 °F 41.5 °F 15.3 °F 31% 30.05 in 10.0 mi West 4.6 mph - N/A   Overcast
5:55 PM 43.3 °F 39.2 °F 18.5 °F 37% 30.05 in 10.0 mi South 6.9 mph - N/A   Mostly Cloudy
6:15 PM 41.9 °F 36.9 °F 20.8 °F 43% 30.06 in 10.0 mi SSW 8.1 mph - N/A   Mostly Cloudy
6:35 PM 41.4 °F 36.8 °F 20.7 °F 44% 30.06 in 10.0 mi SSW 6.9 mph - N/A   Overcast
6:55 PM 41.2 °F 36.6 °F 19.4 °F 42% 30.06 in 10.0 mi SSW 6.9 mph - N/A   Overcast
7:15 PM 40.5 °F 35.8 °F 20.1 °F 44% 30.06 in 10.0 mi WSW 6.9 mph - N/A   Overcast
7:35 PM 39.0 °F 34.8 °F 20.7 °F 48% 30.07 in 10.0 mi SW 5.8 mph - N/A   Scattered Clouds
7:55 PM 38.1 °F 34.6 °F 21.9 °F 52% 30.07 in 10.0 mi SW 4.6 mph - N/A   Clear
8:15 PM 37.6 °F 30.5 °F 20.5 °F 50% 30.08 in 10.0 mi SW 10.4 mph 16.1 mph N/A   Clear
8:35 PM 36.7 °F 28.9 °F 22.1 °F 56% 30.09 in 10.0 mi West 11.5 mph - N/A   Scattered Clouds
8:55 PM 35.8 °F 29.4 °F 22.5 °F 58% 30.09 in 10.0 mi South 8.1 mph - N/A   Clear
9:15 PM 36.9 °F 32.2 °F 20.3 °F 51% 30.09 in 10.0 mi SW 5.8 mph - N/A   Clear
9:35 PM 35.4 °F 30.5 °F 20.7 °F 55% 30.09 in 10.0 mi SW 5.8 mph - N/A   Clear
9:55 PM 34.9 °F 32.0 °F 21.9 °F 59% 30.09 in 10.0 mi SW 3.5 mph - N/A   Mostly Cloudy
10:15 PM 35.4 °F 31.5 °F 21.2 °F 56% 30.09 in 10.0 mi WNW 4.6 mph - N/A   Scattered Clouds
10:35 PM 35.4 °F 32.6 °F 21.4 °F 57% 30.08 in 10.0 mi NW 3.5 mph - N/A   Clear
10:55 PM 34.9 °F 30.8 °F 21.7 °F 59% 30.08 in 10.0 mi SSW 4.6 mph - N/A   Scattered Clouds
11:15 PM 33.4 °F 29.1 °F 23.0 °F 66% 30.07 in 10.0 mi SSW 4.6 mph - N/A   Scattered Clouds
11:35 PM 32.5 °F 29.3 °F 23.2 °F 68% 30.07 in 10.0 mi SSW 3.5 mph - N/A   Scattered Clouds
11:55 PM 32.0 °F 27.5 °F 23.7 °F 71% 30.06 in 10.0 mi SSW 4.6 mph - N/A   Clear